createdAt,value
2018-04-14T00:00:32.112Z,4.20
2018-04-14T00:02:59.191Z,6.27
2018-04-14T00:05:25.484Z,5.13
2018-04-14T00:07:52.502Z,7.90
2018-04-14T00:10:18.882Z,11.53
2018-04-14T00:12:45.150Z,6.13
2018-04-14T00:15:11.502Z,13.60
2018-04-14T00:17:37.766Z,3.33
2018-04-14T00:20:04.143Z,2.60
2018-04-14T00:22:30.438Z,3.47
2018-04-14T00:24:56.724Z,2.67
2018-04-14T00:27:23.007Z,16.13
2018-04-14T00:29:49.335Z,9.00
2018-04-14T00:32:15.674Z,6.40
2018-04-14T00:34:41.970Z,5.77
2018-04-14T00:37:08.253Z,4.47
2018-04-14T00:39:34.596Z,3.20
2018-04-14T00:42:00.939Z,6.87
2018-04-14T00:44:27.929Z,3.33
2018-04-14T00:46:54.182Z,8.10
2018-04-14T00:49:20.480Z,8.93
2018-04-14T00:51:47.491Z,4.57
2018-04-14T00:54:13.941Z,2.83
2018-04-14T00:56:40.361Z,4.20
2018-04-14T00:59:06.667Z,9.03
2018-04-14T01:01:33.708Z,17.07
2018-04-14T01:03:59.972Z,10.53
2018-04-14T01:06:27.012Z,3.10
2018-04-14T01:08:53.248Z,10.90
2018-04-14T01:11:21.400Z,5.27
2018-04-14T01:13:47.661Z,4.20
2018-04-14T01:16:14.055Z,2.60
2018-04-14T01:18:40.360Z,2.57
2018-04-14T01:21:06.715Z,4.00
2018-04-14T01:23:33.207Z,9.13
2018-04-14T01:25:59.478Z,3.63
2018-04-14T01:28:25.765Z,7.73
2018-04-14T01:30:53.059Z,5.13
2018-04-14T01:33:19.350Z,4.03
2018-04-14T01:35:45.711Z,3.80
2018-04-14T01:38:12.751Z,7.87
2018-04-14T01:40:39.065Z,2.80
2018-04-14T01:43:05.425Z,4.23
2018-04-14T01:45:33.042Z,2.90
2018-04-14T01:47:59.352Z,3.13
2018-04-14T01:50:25.628Z,3.50
2018-04-14T01:52:52.641Z,8.30
2018-04-14T01:55:18.958Z,2.63
2018-04-14T01:57:45.278Z,8.60
2018-04-14T02:00:12.300Z,6.67
2018-04-14T02:02:38.620Z,3.77
2018-04-14T02:05:04.966Z,14.00
2018-04-14T02:07:31.299Z,3.10
2018-04-14T02:09:57.588Z,4.83
2018-04-14T02:12:23.844Z,5.30
2018-04-14T02:14:50.908Z,2.83
2018-04-14T02:17:18.031Z,2.90
2018-04-14T02:19:44.327Z,4.67
2018-04-14T02:22:10.683Z,9.33
2018-04-14T02:24:37.019Z,7.00
2018-04-14T02:27:03.498Z,3.10
2018-04-14T02:29:29.856Z,2.83
2018-04-14T02:31:56.198Z,2.80
2018-04-14T02:34:22.575Z,3.20
2018-04-14T02:36:49.591Z,2.60
2018-04-14T02:39:15.904Z,3.00
2018-04-14T02:41:42.211Z,3.40
2018-04-14T02:44:08.587Z,3.03
2018-04-14T02:46:35.043Z,2.80
2018-04-14T02:49:01.387Z,8.47
2018-04-14T02:51:27.657Z,3.70
2018-04-14T02:53:54.086Z,3.30
2018-04-14T02:56:20.335Z,6.07
2018-04-14T02:58:46.622Z,4.93
2018-04-14T03:01:12.952Z,3.13
2018-04-14T03:03:39.222Z,4.20
2018-04-14T03:06:05.605Z,4.37
2018-04-14T03:08:32.750Z,3.63
2018-04-14T03:10:59.073Z,6.60
2018-04-14T03:13:25.443Z,4.67
2018-04-14T03:15:55.019Z,3.60
2018-04-14T03:18:21.293Z,4.43
2018-04-14T03:20:47.596Z,3.80
2018-04-14T03:23:13.952Z,4.40
2018-04-14T03:25:41.004Z,6.20
2018-04-14T03:28:07.365Z,7.33
2018-04-14T03:30:34.390Z,5.50
2018-04-14T03:33:00.704Z,9.30
2018-04-14T03:35:26.969Z,5.50
2018-04-14T03:37:53.292Z,7.00
2018-04-14T03:40:19.609Z,6.37
2018-04-14T03:42:45.931Z,4.80
2018-04-14T03:45:12.997Z,7.50
2018-04-14T03:47:40.108Z,4.97
2018-04-14T03:50:07.226Z,5.50
2018-04-14T03:52:33.548Z,5.17
2018-04-14T03:55:00.616Z,9.13
2018-04-14T03:57:27.696Z,7.10
2018-04-14T03:59:54.803Z,8.87
2018-04-14T04:02:21.123Z,6.57
2018-04-14T04:04:47.379Z,7.33
2018-04-14T04:07:13.661Z,9.60
2018-04-14T04:09:40.521Z,8.50
2018-04-14T04:12:07.581Z,5.60
2018-04-14T04:14:34.831Z,6.37
2018-04-14T04:17:01.898Z,7.83
2018-04-14T04:19:40.404Z,3.90
2018-04-14T04:22:19.772Z,6.50
2018-04-14T04:27:50.875Z,4.67
2018-04-14T04:30:17.062Z,4.70
2018-04-14T04:32:43.231Z,5.37
2018-04-14T04:35:09.443Z,6.27
2018-04-14T04:37:35.799Z,3.80
2018-04-14T04:40:02.013Z,2.70
2018-04-14T04:42:28.205Z,2.60
2018-04-14T04:44:54.381Z,2.70
2018-04-14T04:47:21.321Z,3.30
2018-04-14T04:49:51.968Z,3.00
2018-04-14T04:52:19.342Z,2.63
2018-04-14T04:54:46.262Z,3.00
2018-04-14T04:57:13.212Z,2.60
2018-04-14T04:59:39.449Z,8.07
2018-04-14T05:02:05.742Z,3.77
2018-04-14T05:04:31.948Z,9.70
2018-04-14T05:06:58.104Z,8.67
2018-04-14T05:09:25.258Z,6.13
2018-04-14T05:11:51.379Z,6.27
2018-04-14T05:14:19.178Z,6.90
2018-04-14T05:16:45.354Z,3.00
2018-04-14T05:19:12.271Z,4.63
2018-04-14T05:21:38.458Z,5.60
2018-04-14T05:24:04.704Z,5.73
2018-04-14T05:26:31.385Z,2.80
2018-04-14T05:28:57.579Z,2.00
2018-04-14T05:31:24.482Z,2.50
2018-04-14T05:33:50.627Z,2.60
2018-04-14T05:36:16.870Z,2.37
2018-04-14T05:38:43.556Z,2.70
2018-04-14T05:41:10.497Z,2.70
2018-04-14T05:43:36.680Z,2.60
2018-04-14T05:46:04.287Z,7.83
2018-04-14T05:48:30.487Z,1.90
2018-04-14T05:50:56.675Z,2.70
2018-04-14T05:53:22.785Z,7.13
2018-04-14T05:55:49.010Z,5.20
2018-04-14T05:58:15.189Z,7.37
2018-04-14T06:00:41.418Z,2.90
2018-04-14T06:03:07.664Z,3.83
2018-04-14T06:05:34.794Z,9.37
2018-04-14T06:08:00.972Z,2.67
2018-04-14T06:10:27.121Z,2.50
2018-04-14T06:12:53.337Z,2.10
2018-04-14T06:15:19.528Z,4.27
2018-04-14T06:17:46.603Z,2.47
2018-04-14T06:20:12.893Z,5.30
2018-04-14T06:22:40.737Z,2.10
2018-04-14T06:25:07.074Z,3.47
2018-04-14T06:27:33.424Z,2.60
2018-04-14T06:30:00.452Z,2.30
2018-04-14T06:32:27.507Z,6.43
2018-04-14T06:34:54.523Z,6.10
2018-04-14T06:37:33.807Z,3.17
2018-04-14T06:40:00.893Z,3.00
2018-04-14T06:42:27.213Z,2.10
2018-04-14T06:44:53.546Z,2.40
2018-04-14T06:47:19.838Z,2.60
2018-04-14T06:49:46.160Z,2.83
2018-04-14T06:52:12.486Z,5.33
2018-04-14T06:54:39.491Z,2.10
2018-04-14T06:57:05.790Z,2.47
2018-04-14T06:59:32.812Z,3.27
2018-04-14T07:01:59.069Z,3.27
2018-04-14T07:04:25.822Z,6.37
2018-04-14T07:06:52.036Z,8.03
2018-04-14T07:09:19.503Z,2.93
2018-04-14T07:11:45.788Z,3.17
2018-04-14T07:14:12.109Z,5.17
2018-04-14T07:16:38.411Z,5.07
2018-04-14T07:19:04.747Z,4.47
2018-04-14T07:21:31.003Z,3.30
2018-04-14T07:23:57.330Z,5.20
2018-04-14T07:26:23.596Z,7.70
2018-04-14T07:28:49.892Z,9.87
2018-04-14T07:31:16.944Z,3.30
2018-04-14T07:33:43.291Z,7.63
2018-04-14T07:36:11.127Z,9.73
2018-04-14T07:38:37.441Z,4.47
2018-04-14T07:41:03.916Z,10.57
2018-04-14T07:43:30.246Z,5.03
2018-04-14T07:45:56.565Z,4.70
2018-04-14T07:48:23.582Z,12.60
2018-04-14T07:50:49.859Z,5.13
2018-04-14T07:53:16.856Z,15.03
2018-04-14T07:55:43.197Z,11.23
2018-04-14T07:58:09.590Z,6.80
2018-04-14T08:00:36.013Z,9.03
2018-04-14T08:03:02.336Z,7.53
2018-04-14T08:05:28.620Z,9.50
2018-04-14T08:07:54.905Z,12.23
2018-04-14T08:10:21.142Z,7.70
2018-04-14T08:12:47.405Z,13.30
2018-04-14T08:15:13.836Z,12.57
2018-04-14T08:17:40.311Z,8.43
2018-04-14T08:20:06.817Z,7.10
2018-04-14T08:22:33.278Z,7.17
2018-04-14T08:25:00.393Z,10.90
2018-04-14T08:27:26.795Z,13.73
2018-04-14T08:29:53.060Z,8.40
2018-04-14T08:32:20.056Z,8.30
2018-04-14T08:34:47.264Z,8.00
2018-04-14T08:37:13.595Z,10.67
2018-04-14T08:39:40.586Z,8.63
2018-04-14T08:42:07.571Z,10.97
2018-04-14T08:44:34.743Z,13.00
2018-04-14T08:47:01.780Z,13.50
2018-04-14T08:49:28.105Z,7.10
2018-04-14T08:51:55.090Z,6.77
2018-04-14T08:54:21.403Z,6.87
2018-04-14T08:56:47.649Z,14.43
2018-04-14T08:59:13.898Z,13.97
2018-04-14T09:01:40.252Z,8.67
2018-04-14T09:04:06.590Z,7.23
2018-04-14T09:06:32.965Z,6.10
2018-04-14T09:08:59.979Z,11.77
2018-04-14T09:11:26.269Z,11.67
2018-04-14T09:13:52.614Z,12.60
2018-04-14T09:16:18.876Z,10.60
2018-04-14T09:18:45.155Z,8.73
2018-04-14T09:21:11.452Z,6.53
2018-04-14T09:23:37.740Z,7.00
2018-04-14T09:26:04.137Z,8.87
2018-04-14T09:28:30.684Z,8.30
2018-04-14T09:30:56.952Z,8.33
2018-04-14T09:33:23.197Z,7.03
2018-04-14T09:35:50.198Z,5.00
2018-04-14T09:38:16.672Z,4.90
2018-04-14T09:41:04.119Z,7.67
2018-04-14T09:43:30.451Z,4.40
2018-04-14T09:45:57.594Z,3.97
2018-04-14T09:48:24.590Z,5.67
2018-04-14T09:50:50.965Z,3.70
2018-04-14T09:53:17.250Z,4.40
2018-04-14T09:55:44.293Z,6.67
2018-04-14T09:58:14.435Z,5.57
2018-04-14T10:00:55.648Z,10.53
2018-04-14T10:03:25.021Z,7.23
2018-04-14T10:05:51.468Z,11.27
2018-04-14T10:08:28.530Z,5.93
2018-04-14T10:10:54.993Z,4.07
2018-04-14T10:13:21.289Z,4.20
2018-04-14T10:18:33.740Z,4.30
2018-04-14T10:21:00.794Z,5.47
2018-04-14T10:23:27.767Z,2.73
2018-04-14T10:25:54.057Z,4.17
2018-04-14T10:28:20.394Z,3.43
2018-04-14T10:30:46.844Z,4.70
2018-04-14T10:33:13.389Z,2.23
2018-04-14T10:35:40.542Z,1.60
2018-04-14T10:38:06.999Z,2.83
2018-04-14T10:40:33.343Z,1.90
2018-04-14T10:42:59.657Z,4.43
2018-04-14T10:45:25.970Z,1.90
2018-04-14T10:47:52.272Z,1.50
2018-04-14T10:50:19.346Z,4.83
2018-04-14T10:52:45.748Z,1.13
2018-04-14T10:55:12.061Z,7.30
2018-04-14T10:57:38.480Z,1.50
2018-04-14T11:00:04.844Z,5.00
2018-04-14T11:02:31.935Z,2.57
2018-04-14T11:04:58.468Z,2.20
2018-04-14T11:07:25.647Z,5.57
2018-04-14T11:09:51.956Z,4.53
2018-04-14T11:12:19.018Z,3.77
2018-04-14T11:14:45.316Z,1.70
2018-04-14T11:17:11.723Z,5.67
2018-04-14T11:19:39.961Z,5.97
2018-04-14T11:22:06.407Z,1.50
2018-04-14T11:24:32.775Z,1.50
2018-04-14T11:26:59.964Z,2.00
2018-04-14T11:29:26.999Z,3.43
2018-04-14T11:31:54.320Z,2.83
2018-04-14T11:34:20.620Z,1.50
2018-04-14T11:36:47.696Z,4.33
2018-04-14T11:39:14.868Z,2.40
2018-04-14T11:41:42.401Z,2.33
2018-04-14T11:44:09.007Z,5.67
2018-04-14T11:46:36.562Z,2.40
2018-04-14T11:49:03.096Z,1.90
2018-04-14T11:51:29.594Z,2.50
2018-04-14T11:53:56.762Z,3.60
2018-04-14T11:56:23.251Z,1.90
2018-04-14T11:58:50.361Z,2.33
2018-04-14T12:01:16.720Z,4.63
2018-04-14T12:03:43.037Z,5.67
2018-04-14T12:06:09.472Z,2.20
2018-04-14T12:08:36.282Z,2.10
2018-04-14T12:11:28.717Z,2.17
2018-04-14T12:13:55.907Z,2.23
2018-04-14T12:16:29.285Z,2.10
2018-04-14T12:18:55.633Z,4.07
2018-04-14T12:21:22.140Z,3.77
2018-04-14T12:23:48.552Z,2.00
2018-04-14T12:26:14.961Z,4.60
2018-04-14T12:28:41.311Z,4.13
2018-04-14T12:31:07.709Z,2.30
2018-04-14T12:33:34.838Z,3.77
2018-04-14T12:36:01.198Z,2.00
2018-04-14T12:38:27.476Z,1.90
2018-04-14T12:40:57.289Z,1.50
2018-04-14T12:43:23.642Z,4.50
2018-04-14T12:45:50.267Z,2.40
2018-04-14T12:48:16.628Z,2.00
2018-04-14T12:50:42.895Z,1.70
2018-04-14T12:53:09.239Z,1.30
2018-04-14T12:55:35.463Z,1.80
2018-04-14T12:58:06.927Z,1.70
2018-04-14T13:00:33.927Z,1.53
2018-04-14T13:03:00.264Z,1.37
2018-04-14T13:05:26.526Z,2.80
2018-04-14T13:07:52.860Z,1.77
2018-04-14T13:10:19.225Z,2.60
2018-04-14T13:12:45.483Z,2.00
2018-04-14T13:15:11.828Z,1.47
2018-04-14T13:17:39.176Z,1.30
2018-04-14T13:20:06.293Z,1.30
2018-04-14T13:22:32.623Z,2.13
2018-04-14T13:24:59.014Z,1.70
2018-04-14T13:27:25.315Z,1.17
2018-04-14T13:29:51.628Z,2.63
2018-04-14T13:32:18.847Z,1.50
2018-04-14T13:34:45.377Z,1.23
2018-04-14T13:37:22.335Z,1.20
2018-04-14T13:39:48.692Z,1.00
2018-04-14T13:42:15.160Z,1.63
2018-04-14T13:44:41.471Z,1.30
2018-04-14T13:47:07.963Z,1.30
2018-04-14T13:49:34.269Z,1.60
2018-04-14T13:52:01.012Z,2.47
2018-04-14T13:54:27.442Z,1.73
2018-04-14T13:56:54.496Z,2.87
2018-04-14T13:59:21.596Z,1.70
2018-04-14T14:01:47.868Z,1.90
2018-04-14T14:04:14.237Z,1.97
2018-04-14T14:06:40.637Z,4.80
2018-04-14T14:09:06.994Z,4.07
2018-04-14T14:11:33.449Z,3.67
2018-04-14T14:13:59.774Z,1.10
2018-04-14T14:16:26.103Z,3.10
2018-04-14T14:18:56.261Z,1.30
2018-04-14T14:21:22.566Z,2.20
2018-04-14T14:23:48.937Z,1.57
2018-04-14T14:26:15.983Z,2.93
2018-04-14T14:28:42.643Z,1.23
2018-04-14T14:31:09.059Z,1.17
2018-04-14T14:33:36.107Z,1.10
2018-04-14T14:36:02.407Z,2.30
2018-04-14T14:38:28.634Z,1.90
2018-04-14T14:40:54.938Z,1.00
2018-04-14T14:43:44.951Z,6.07
2018-04-14T14:46:12.175Z,7.43
2018-04-14T14:48:39.404Z,1.30
2018-04-14T14:51:05.834Z,1.40
2018-04-14T14:53:32.214Z,1.10
2018-04-14T14:55:58.522Z,1.00
2018-04-14T14:58:24.852Z,1.97
2018-04-14T15:00:51.252Z,1.77
2018-04-14T15:03:18.274Z,2.20
2018-04-14T15:05:45.622Z,1.10
2018-04-14T15:08:12.823Z,2.50
2018-04-14T15:10:39.896Z,4.90
2018-04-14T15:13:06.254Z,7.50
2018-04-14T15:15:32.520Z,4.73
2018-04-14T15:17:58.842Z,4.83
2018-04-14T15:20:26.057Z,3.53
2018-04-14T15:22:52.984Z,1.33
2018-04-14T15:25:20.080Z,1.50
2018-04-14T15:27:46.367Z,4.67
2018-04-14T15:30:12.799Z,4.13
2018-04-14T15:32:39.144Z,1.30
2018-04-14T15:35:05.539Z,2.03
2018-04-14T15:37:31.954Z,3.27
2018-04-14T15:40:01.871Z,1.50
2018-04-14T15:42:28.201Z,1.50
2018-04-14T15:44:54.500Z,1.73
2018-04-14T15:47:20.933Z,2.20
2018-04-14T15:49:47.219Z,3.10
2018-04-14T15:52:13.564Z,4.60
2018-04-14T15:54:39.887Z,4.23
2018-04-14T15:57:07.060Z,1.30
2018-04-14T15:59:33.496Z,1.67
2018-04-14T16:01:59.871Z,3.27
2018-04-14T16:04:26.200Z,2.47
2018-04-14T16:06:57.281Z,3.30
2018-04-14T16:09:23.574Z,1.90
2018-04-14T16:11:49.843Z,1.07
2018-04-14T16:14:34.893Z,1.10
2018-04-14T16:17:01.237Z,1.00
2018-04-14T16:19:28.323Z,6.77
2018-04-14T16:21:54.710Z,2.17
2018-04-14T16:24:21.736Z,1.73
2018-04-14T16:26:48.033Z,1.43
2018-04-14T16:29:15.050Z,7.27
2018-04-14T16:31:41.404Z,1.23
2018-04-14T16:34:07.695Z,2.40
2018-04-14T16:36:34.216Z,1.13
2018-04-14T16:39:01.298Z,3.07
2018-04-14T16:41:27.655Z,6.00
2018-04-14T16:43:54.039Z,4.73
2018-04-14T16:46:20.386Z,1.63
2018-04-14T16:48:48.002Z,1.90
2018-04-14T16:51:15.093Z,2.70
2018-04-14T16:53:41.520Z,5.27
2018-04-14T16:56:08.085Z,1.13
2018-04-14T16:58:35.220Z,3.20
2018-04-14T17:01:01.836Z,1.70
2018-04-14T17:03:28.784Z,3.70
2018-04-14T17:05:55.216Z,1.20
2018-04-14T17:08:21.630Z,1.43
2018-04-14T17:10:48.316Z,1.97
2018-04-14T17:13:14.968Z,2.13
2018-04-14T17:15:58.452Z,1.80
2018-04-14T17:18:25.020Z,1.40
2018-04-14T17:20:52.983Z,1.80
2018-04-14T17:23:19.478Z,1.60
2018-04-14T17:25:46.742Z,1.37
2018-04-14T17:28:13.159Z,1.60
2018-04-14T17:30:40.097Z,1.77
2018-04-14T17:33:07.724Z,1.40
2018-04-14T17:35:35.395Z,1.80
2018-04-14T17:38:03.014Z,1.70
2018-04-14T17:40:29.627Z,2.70
2018-04-14T17:42:56.400Z,2.20
2018-04-14T17:45:23.046Z,2.70
2018-04-14T17:47:49.703Z,2.10
2018-04-14T17:50:16.065Z,2.00
2018-04-14T17:52:44.287Z,2.30
2018-04-14T17:55:15.178Z,2.10
2018-04-14T17:57:41.763Z,2.80
2018-04-14T18:00:08.331Z,2.63
2018-04-14T18:02:36.158Z,4.90
2018-04-14T18:05:02.675Z,6.80
2018-04-14T18:07:29.020Z,6.60
2018-04-14T18:09:55.570Z,4.80
2018-04-14T18:12:22.103Z,6.47
2018-04-14T18:14:49.030Z,5.00
2018-04-14T18:17:18.263Z,5.00
2018-04-14T18:19:45.920Z,5.30
2018-04-14T18:22:14.227Z,4.87
2018-04-14T18:24:41.468Z,5.30
2018-04-14T18:27:08.080Z,4.97
2018-04-14T18:29:35.656Z,5.27
2018-04-14T18:32:02.232Z,5.20
2018-04-14T18:34:28.828Z,4.53
2018-04-14T18:36:55.666Z,4.60
2018-04-14T18:39:21.983Z,5.77
2018-04-14T18:41:48.437Z,6.23
2018-04-14T18:44:15.039Z,13.17
2018-04-14T18:46:41.568Z,9.40
2018-04-14T18:49:08.451Z,7.93
2018-04-14T18:51:36.850Z,7.23
2018-04-14T18:54:05.312Z,8.00
2018-04-14T18:56:31.909Z,8.90
2018-04-14T18:58:59.334Z,10.60
2018-04-14T19:01:25.767Z,11.03
2018-04-14T19:03:52.137Z,11.70
2018-04-14T19:06:19.197Z,12.33
2018-04-14T19:08:45.596Z,13.67
2018-04-14T19:11:12.745Z,13.67
2018-04-14T19:13:39.330Z,14.10
2018-04-14T19:16:06.379Z,13.90
2018-04-14T19:18:34.734Z,11.97
2018-04-14T19:21:02.992Z,11.20
2018-04-14T19:23:29.596Z,12.70
2018-04-14T19:25:56.766Z,13.50
2018-04-14T19:28:23.149Z,10.03
2018-04-14T19:30:50.264Z,9.30
2018-04-14T19:33:17.529Z,8.17
2018-04-14T19:35:44.900Z,9.10
2018-04-14T19:38:12.372Z,11.67
2018-04-14T19:40:39.769Z,11.80
2018-04-14T19:43:06.631Z,10.50
2018-04-14T19:45:33.611Z,9.93
2018-04-14T19:48:00.588Z,9.00
2018-04-14T19:50:27.012Z,8.50
2018-04-14T19:52:58.301Z,8.23
2018-04-14T19:55:28.522Z,9.13
2018-04-14T19:57:55.789Z,10.27
2018-04-14T20:00:22.139Z,11.57
2018-04-14T20:02:48.501Z,10.63
2018-04-14T20:05:14.891Z,10.57
2018-04-14T20:07:41.377Z,9.67
2018-04-14T20:10:08.820Z,8.37
2018-04-14T20:12:35.810Z,10.23
2018-04-14T20:15:05.800Z,8.77
2018-04-14T20:17:33.229Z,10.87
2018-04-14T20:20:00.386Z,11.27
2018-04-14T20:22:29.619Z,9.37
2018-04-14T20:24:55.884Z,9.57
2018-04-14T20:27:22.943Z,9.50
2018-04-14T20:29:49.307Z,9.80
2018-04-14T20:32:17.166Z,8.90
2018-04-14T20:34:43.489Z,8.60
2018-04-14T20:37:10.078Z,8.03
2018-04-14T20:39:37.366Z,7.93
2018-04-14T20:42:05.942Z,8.17
2018-04-14T20:44:32.489Z,6.50
2018-04-14T20:46:58.880Z,7.20
2018-04-14T20:49:25.230Z,7.23
2018-04-14T20:51:51.693Z,7.20
2018-04-14T20:54:19.003Z,8.10
2018-04-14T20:56:45.403Z,9.27
2018-04-14T20:59:11.887Z,7.67
2018-04-14T21:01:39.062Z,7.10
2018-04-14T21:04:07.054Z,6.70
2018-04-14T21:06:33.602Z,7.00
2018-04-14T21:09:00.275Z,6.60
2018-04-14T21:11:26.749Z,5.70
2018-04-14T21:13:54.172Z,6.70
2018-04-14T21:16:22.414Z,7.03
2018-04-14T21:18:54.028Z,7.20
2018-04-14T21:21:21.209Z,5.67
2018-04-14T21:23:47.719Z,6.63
2018-04-14T21:26:14.135Z,6.50
2018-04-14T21:28:40.746Z,6.97
2018-04-14T21:31:07.689Z,6.63
2018-04-14T21:33:35.261Z,6.00
2018-04-14T21:36:02.138Z,6.30
2018-04-14T21:38:28.622Z,6.53
2018-04-14T21:40:55.774Z,6.83
2018-04-14T21:43:26.618Z,7.40
2018-04-14T21:45:53.093Z,5.33
2018-04-14T21:48:19.880Z,6.13
2018-04-14T21:50:51.685Z,6.57
2018-04-14T21:53:18.038Z,6.43
2018-04-14T21:55:44.444Z,6.03
2018-04-14T21:58:12.556Z,5.50
2018-04-14T22:00:38.965Z,5.30
2018-04-14T22:03:06.554Z,4.17
2018-04-14T22:05:32.947Z,5.53
2018-04-14T22:07:59.290Z,4.00
2018-04-14T22:10:25.584Z,4.40
2018-04-14T22:12:52.730Z,4.00
2018-04-14T22:15:19.772Z,5.20
2018-04-14T22:17:46.034Z,5.27
2018-04-14T22:20:13.324Z,5.07
2018-04-14T22:22:39.911Z,4.90
2018-04-14T22:25:09.675Z,5.70
2018-04-14T22:27:36.832Z,4.90
2018-04-14T22:30:03.922Z,4.60
2018-04-14T22:32:30.261Z,4.70
2018-04-14T22:34:57.678Z,5.00
2018-04-14T22:37:24.061Z,5.03
2018-04-14T22:39:51.113Z,4.47
2018-04-14T22:42:18.220Z,5.43
2018-04-14T22:44:44.545Z,5.23
2018-04-14T22:47:10.817Z,6.03
2018-04-14T22:49:37.294Z,5.50
2018-04-14T22:52:03.613Z,5.90
2018-04-14T22:54:29.928Z,5.60
2018-04-14T22:56:56.203Z,5.57
2018-04-14T22:59:22.526Z,7.50
2018-04-14T23:01:48.950Z,7.70
2018-04-14T23:04:15.245Z,6.20
2018-04-14T23:06:41.676Z,5.23
2018-04-14T23:09:08.033Z,5.47
2018-04-14T23:11:36.717Z,5.47
2018-04-14T23:14:03.111Z,6.30
2018-04-14T23:16:29.487Z,6.50
2018-04-14T23:18:55.838Z,6.87
2018-04-14T23:21:22.179Z,7.20
2018-04-14T23:23:49.650Z,7.60
2018-04-14T23:26:17.711Z,7.13
2018-04-14T23:28:44.028Z,6.83
2018-04-14T23:31:11.058Z,7.03
2018-04-14T23:33:37.326Z,6.33
2018-04-14T23:36:03.710Z,7.17
2018-04-14T23:38:31.100Z,6.53
2018-04-14T23:40:57.374Z,6.23
2018-04-14T23:43:24.511Z,5.87
2018-04-14T23:45:50.848Z,5.23
2018-04-14T23:48:17.177Z,6.07
2018-04-14T23:50:43.478Z,7.07
2018-04-14T23:53:10.570Z,8.27
2018-04-14T23:55:36.877Z,7.87
2018-04-14T23:58:04.070Z,8.03
